Impacts METAR Board
IDs:

KMNZ - Hamilton Muni, TX, US

Updated at: 0500 UTC 19 Aug 2019
Potential Impact None Slight Moderate High
Time 18/17Z 18/18Z 18/19Z 18/20Z 18/21Z 18/22Z 18/23Z 19/00Z 19/01Z 19/02Z 19/03Z 19/04Z 19/05Z
Temp93 96 98 100 100 100 100 98 94 90 87 85 84
Dewpt65 64 64 63 62 60 60 61 63 64 63 64 64
Altim29.94 29.93 29.92 29.90 29.89 29.88 29.87 29.87 29.87 29.87 29.90 29.92 29.94
VIS5 10 10 10 10 10 10 10 10 10 10 10 10
CIG-- -- -- -- -- -- -- -- -- -- -- -- --
CoverCLRCLRCLRCLRCLRCLRCLRCLRCLRCLRCLRCLRCLR
FltCatMVFRVFRVFRVFRVFRVFRVFRVFRVFRVFRVFRVFRVFR
WXHZ------------------------
WDir200190180180150170190140140150160160160
WSpd13 12 6 7 10 5 7 10 10 9 7 6 9
WGst16 18 18 15 -- 14 -- -- 16 -- -- -- --
Raw hourly METARs
KMNZ 181655Z AUTO 20013G16KT 5SM HZ CLR 34/18 A2994 RMK AO2 T03400182
KMNZ 181755Z AUTO 19012G18KT 10SM CLR 36/18 A2993 RMK AO2 T03560177 10356 20245
KMNZ 181855Z AUTO 18006G18KT 10SM CLR 36/18 A2992 RMK AO2 T03640176
KMNZ 181955Z AUTO 18007G15KT 160V220 10SM CLR 38/17 A2990 RMK AO2 T03750171
KMNZ 182055Z AUTO 15010KT 10SM CLR 38/17 A2989 RMK AO2 T03770166
KMNZ 182155Z AUTO 17005G14KT 10SM CLR 38/16 A2988 RMK AO2 T03780158
KMNZ 182255Z AUTO 19007KT 10SM CLR 38/16 A2987 RMK AO2 T03790157
KMNZ 182355Z AUTO 14010KT 10SM CLR 37/16 A2987 RMK AO2 T03650162 10384 20359
KMNZ 190055Z AUTO 14010G16KT 10SM CLR 35/17 A2987 RMK AO2 T03450170
KMNZ 190155Z AUTO 15009KT 10SM CLR 32/18 A2987 RMK AO2 T03210175
KMNZ 190255Z AUTO 16007KT 10SM CLR 31/17 A2990 RMK AO2 T03060173
KMNZ 190355Z AUTO 16006KT 10SM CLR 29/18 A2992 RMK AO2 T02940175
KMNZ 190455Z AUTO 16009KT 10SM CLR 29/18 A2994 RMK AO2 T02900180



Page loaded:  05:32 UTC  |   10:32 PM Pacific  |   11:32 PM Mountain  |   12:32 AM Central  |   01:32 AM Eastern

 

ADVISORIES

FORECASTS

FORECASTS

OBSERVATIONS

USER TOOLS

ABOUT US